Time;durP1;ratioP1;P1;durP2;ratioP2;P2;SDS_P1;SDS_P2;PMS_P1;PMS_P2;Temp;Humidity;BMP_temperature;BMP_pressure;BME280_temperature;BME280_humidity;BME280_pressure;Samples;Min_cycle;Max_cycle;Signal;HPM_P1;HPM_P2
2021/05/16 00:00:24;;;;;;;12.35;8.70;;;;;;;13.58;68.64;99200.19;2157462;82;28744;-70
2021/05/16 00:03:28;;;;;;;14.25;9.58;;;;;;;13.59;68.74;99196.05;2154600;81;27621;-69
2021/05/16 00:06:29;;;;;;;12.82;8.58;;;;;;;13.59;69.03;99196.52;2154529;82;33326;-68
2021/05/16 00:09:32;;;;;;;12.55;9.43;;;;;;;13.59;69.04;99204.59;2154240;82;29001;-71
2021/05/16 00:12:36;;;;;;;13.85;9.35;;;;;;;13.59;69.17;99208.16;2154217;82;28079;-66
2021/05/16 00:15:38;;;;;;;12.25;8.73;;;;;;;13.59;69.30;99200.09;2154393;82;29366;-66
2021/05/16 00:18:40;;;;;;;13.93;9.05;;;;;;;13.59;69.48;99198.74;2154344;82;31027;-65
2021/05/16 00:21:43;;;;;;;15.43;9.00;;;;;;;13.60;69.51;99200.45;2150226;82;33675;-68
2021/05/16 00:24:45;;;;;;;13.80;9.45;;;;;;;13.61;69.68;99201.30;2135343;82;29011;-64
2021/05/16 00:27:47;;;;;;;13.40;9.55;;;;;;;13.59;69.66;99196.52;2147042;82;27552;-68
2021/05/16 00:30:48;;;;;;;13.98;9.48;;;;;;;13.53;69.60;99184.42;2162216;81;28601;-67
2021/05/16 00:33:50;;;;;;;12.68;9.33;;;;;;;13.49;69.67;99189.67;2184574;81;30972;-68
2021/05/16 00:36:52;;;;;;;15.50;9.63;;;;;;;13.48;69.97;99195.55;2184447;81;33711;-67
2021/05/16 00:39:55;;;;;;;12.65;8.93;;;;;;;13.47;70.05;99192.50;2184630;81;29354;-68
2021/05/16 00:42:57;;;;;;;17.50;9.55;;;;;;;13.48;70.16;99183.95;2186620;81;27543;-69
2021/05/16 00:45:58;;;;;;;10.65;8.40;;;;;;;13.47;69.98;99167.44;2186541;81;29776;-69
2021/05/16 00:49:00;;;;;;;11.33;7.95;;;;;;;13.45;70.10;99166.70;2186434;81;33103;-69
2021/05/16 00:52:03;;;;;;;8.70;6.85;;;;;;;13.45;70.12;99166.70;2187909;81;33069;-69
2021/05/16 00:55:07;;;;;;;13.20;7.42;;;;;;;13.39;69.86;99147.84;2188486;81;28852;-67
2021/05/16 00:58:09;;;;;;;9.60;6.67;;;;;;;13.33;70.23;99152.36;2188778;81;27563;-69
2021/05/16 01:01:13;;;;;;;9.03;6.20;;;;;;;13.28;70.33;99146.02;2187571;81;28647;-66
2021/05/16 01:04:14;;;;;;;8.25;5.87;;;;;;;13.23;70.37;99150.89;2186422;81;30996;-67
2021/05/16 01:07:16;;;;;;;10.55;6.37;;;;;;;13.22;70.60;99154.08;2186416;81;33111;-70
2021/05/16 01:10:19;;;;;;;9.00;5.67;;;;;;;13.22;70.68;99147.36;2186744;81;29129;-65
2021/05/16 01:13:21;;;;;;;8.95;6.22;;;;;;;13.22;70.73;99143.80;2188405;81;27623;-68
2021/05/16 01:16:23;;;;;;;8.20;5.30;;;;;;;13.19;70.61;99137.31;2188489;81;29327;-68
2021/05/16 01:19:25;;;;;;;6.10;5.40;;;;;;;13.14;70.53;99132.81;2188342;81;31010;-69
2021/05/16 01:22:26;;;;;;;7.20;5.97;;;;;;;13.10;70.67;99136.71;2184799;81;33087;-70
2021/05/16 01:25:33;;;;;;;7.85;6.28;;;;;;;13.07;70.86;99140.00;2184390;81;29700;-70
2021/05/16 01:28:35;;;;;;;6.97;5.60;;;;;;;13.10;71.15;99146.13;2183710;81;27573;-69
2021/05/16 01:31:37;;;;;;;8.65;5.72;;;;;;;13.12;71.09;99138.80;2186944;81;28599;-70
2021/05/16 01:34:41;;;;;;;8.03;6.17;;;;;;;13.12;71.14;99129.38;2188275;81;31799;-71
2021/05/16 01:37:42;;;;;;;13.30;8.28;;;;;;;13.10;71.17;99125.95;2188425;81;32928;-68
2021/05/16 01:40:44;;;;;;;12.63;8.28;;;;;;;13.03;71.35;99130.97;2187331;81;29013;-65
2021/05/16 01:43:48;;;;;;;12.93;9.65;;;;;;;12.99;71.29;99134.36;2184508;81;27626;-67
2021/05/16 01:46:49;;;;;;;13.53;9.93;;;;;;;12.96;71.51;99129.25;2184460;81;28618;-69
2021/05/16 01:49:56;;;;;;;12.58;9.38;;;;;;;12.92;71.63;99130.46;2185758;81;30955;-67
2021/05/16 01:52:58;;;;;;;15.48;10.03;;;;;;;12.87;71.80;99124.58;2188314;81;32962;-66
2021/05/16 01:56:00;;;;;;;12.03;8.98;;;;;;;12.83;71.92;99124.45;2188170;81;29059;-66
2021/05/16 01:59:03;;;;;;;15.50;9.33;;;;;;;12.79;71.96;99125.68;2188748;81;27562;-65
2021/05/16 02:02:06;;;;;;;11.20;7.45;;;;;;;12.74;72.10;99117.98;2188504;81;29377;-67
2021/05/16 02:05:10;;;;;;;10.08;7.08;;;;;;;12.73;72.14;99114.93;2188340;81;32144;-70
2021/05/16 02:08:12;;;;;;;7.17;5.78;;;;;;;12.72;72.30;99114.05;2163546;81;33697;-71
2021/05/16 02:11:14;;;;;;;8.53;6.35;;;;;;;12.67;72.02;99123.45;2184300;81;30155;-72
2021/05/16 02:14:28;;;;;;;7.50;5.65;;;;;;;12.65;72.22;99122.72;2184556;81;27659;-70
2021/05/16 02:17:30;;;;;;;7.35;6.55;;;;;;;12.64;72.23;99118.31;2186225;81;29333;-71
2021/05/16 02:20:32;;;;;;;8.90;6.03;;;;;;;12.62;72.25;99114.41;2188245;81;31707;-67
2021/05/16 02:23:38;;;;;;;8.85;5.65;;;;;;;12.63;72.38;99116.59;2188230;81;33704;-69
2021/05/16 02:26:40;;;;;;;12.50;6.35;;;;;;;12.60;72.59;99109.14;2187918;81;29452;-69
2021/05/16 02:29:42;;;;;;;9.95;6.85;;;;;;;12.56;72.49;99117.56;2186567;81;27611;-70
2021/05/16 02:32:46;;;;;;;8.98;7.22;;;;;;;12.53;72.60;99112.42;2186395;81;29169;-69
2021/05/16 02:35:48;;;;;;;9.45;7.30;;;;;;;12.51;72.81;99106.30;2186349;81;31075;-69
2021/05/16 02:38:50;;;;;;;10.28;8.13;;;;;;;12.54;72.88;99113.66;2186541;81;33314;-67
2021/05/16 02:41:51;;;;;;;9.55;7.92;;;;;;;12.54;72.86;99108.77;2186611;81;29435;-65
2021/05/16 02:44:53;;;;;;;12.18;8.38;;;;;;;12.57;72.97;99108.06;2186569;81;27745;-68
2021/05/16 02:47:55;;;;;;;12.03;7.85;;;;;;;12.59;73.00;99104.73;2187687;81;29763;-68
2021/05/16 02:50:57;;;;;;;10.48;8.05;;;;;;;12.63;72.98;99109.88;2188509;81;31357;-66
2021/05/16 02:53:59;;;;;;;9.15;8.20;;;;;;;12.63;73.00;99102.69;2187542;81;33298;-68
2021/05/16 02:57:01;;;;;;;10.78;8.23;;;;;;;12.66;72.99;99097.56;2197865;80;29440;-69
2021/05/16 03:00:06;;;;;;;11.45;8.03;;;;;;;12.66;72.93;99105.62;2206834;80;27664;-66
2021/05/16 03:03:08;;;;;;;10.05;6.97;;;;;;;12.65;72.95;99095.38;2186665;81;29555;-71
2021/05/16 03:06:10;;;;;;;8.88;7.03;;;;;;;12.63;72.90;99101.82;2187221;81;30315;-72
2021/05/16 03:09:11;;;;;;;9.15;7.05;;;;;;;12.61;72.85;99101.45;2188073;81;32967;-70
2021/05/16 03:12:14;;;;;;;9.13;6.70;;;;;;;12.59;72.80;99102.05;2188424;81;29015;-71
2021/05/16 03:15:16;;;;;;;8.03;6.78;;;;;;;12.57;72.75;99111.22;2187270;81;27637;-71
2021/05/16 03:18:18;;;;;;;13.03;6.92;;;;;;;12.54;72.66;99107.42;2184323;81;29360;-69
2021/05/16 03:21:20;;;;;;;12.05;6.83;;;;;;;12.49;72.68;99104.25;2184574;81;31386;-70
2021/05/16 03:24:22;;;;;;;10.50;7.22;;;;;;;12.46;72.67;99103.98;2184312;81;33268;-67
2021/05/16 03:27:23;;;;;;;11.22;7.25;;;;;;;12.44;72.66;99103.23;2184318;81;29251;-70
2021/05/16 03:30:25;;;;;;;10.50;6.42;;;;;;;12.43;72.71;99100.18;2189879;79;27732;-69
2021/05/16 03:33:27;;;;;;;8.58;7.45;;;;;;;12.42;72.68;99098.47;2186607;81;29853;-70
2021/05/16 03:36:29;;;;;;;7.67;6.20;;;;;;;12.43;72.71;99101.05;2186640;81;32272;-66
2021/05/16 03:39:31;;;;;;;10.30;8.00;;;;;;;12.44;72.70;99109.48;2186675;81;33366;-70
2021/05/16 03:42:34;;;;;;;10.03;7.10;;;;;;;12.46;72.73;99108.88;2158957;81;30179;-68
2021/05/16 03:45:36;;;;;;;10.95;6.80;;;;;;;12.48;72.64;99110.59;2170193;80;27547;-66
2021/05/16 03:48:39;;;;;;;8.30;6.47;;;;;;;12.49;72.71;99106.94;2188122;81;29436;-67
2021/05/16 03:51:41;;;;;;;8.68;6.20;;;;;;;12.51;72.72;99107.17;2186553;81;31700;-64
2021/05/16 03:54:43;;;;;;;9.70;7.08;;;;;;;12.55;72.74;99114.03;2186366;81;32940;-64
2021/05/16 03:57:44;;;;;;;8.95;6.97;;;;;;;12.57;72.74;99113.44;2186576;81;29442;-66
2021/05/16 04:00:46;;;;;;;7.17;6.05;;;;;;;12.61;72.84;99109.52;2185258;81;27560;-67
2021/05/16 04:03:48;;;;;;;9.85;6.60;;;;;;;12.65;72.76;99114.66;2186842;81;28518;-67
2021/05/16 04:06:50;;;;;;;8.53;7.17;;;;;;;12.68;72.87;99111.23;2188507;81;31699;-68
2021/05/16 04:09:51;;;;;;;11.38;7.58;;;;;;;12.72;72.81;99114.56;2186312;80;32925;-66
2021/05/16 04:12:53;;;;;;;9.55;7.00;;;;;;;12.76;72.76;99117.34;2184568;81;29348;-67
2021/05/16 04:15:55;;;;;;;8.85;5.85;;;;;;;12.79;72.76;99117.12;2184884;81;27708;-67
2021/05/16 04:18:56;;;;;;;6.47;5.30;;;;;;;12.79;72.73;99109.56;2184818;81;29776;-67
2021/05/16 04:21:58;;;;;;;9.08;5.70;;;;;;;12.83;72.76;99107.84;2184726;81;32125;-67
2021/05/16 04:25:00;;;;;;;6.22;4.47;;;;;;;12.90;72.86;99106.88;2184662;81;32916;-66
2021/05/16 04:28:03;;;;;;;5.83;4.50;;;;;;;12.99;72.89;99108.82;2185457;81;30189;-68
2021/05/16 04:31:04;;;;;;;6.37;4.40;;;;;;;13.08;72.76;99105.89;2187075;81;27552;-67
2021/05/16 04:34:06;;;;;;;5.53;3.80;;;;;;;13.20;72.89;99098.69;2187058;81;30013;-69
2021/05/16 04:37:08;;;;;;;4.70;3.80;;;;;;;13.40;73.04;99105.20;2186682;81;31005;-66
2021/05/16 04:40:11;;;;;;;5.85;3.62;;;;;;;13.64;72.97;99100.13;2188379;81;34184;-67
2021/05/16 04:43:13;;;;;;;7.33;4.00;;;;;;;14.26;73.51;99099.93;2188663;81;29787;-68
2021/05/16 04:46:15;;;;;;;3.92;2.70;;;;;;;15.14;73.60;99099.62;2188747;81;27598;-67
2021/05/16 04:49:17;;;;;;;3.37;2.55;;;;;;;16.12;72.43;99099.55;2185854;81;29769;-68
2021/05/16 04:52:19;;;;;;;2.67;2.40;;;;;;;16.95;72.01;99098.54;2184685;81;31397;-68
2021/05/16 04:55:21;;;;;;;3.35;1.90;;;;;;;17.75;70.97;99098.00;2184475;81;33341;-67
2021/05/16 04:58:24;;;;;;;2.22;2.00;;;;;;;18.55;69.61;99091.48;2184443;81;29177;-67
2021/05/16 05:01:26;;;;;;;2.72;2.00;;;;;;;19.34;68.57;99094.22;2187677;81;27628;-67
2021/05/16 05:04:29;;;;;;;3.10;2.12;;;;;;;20.10;67.46;99090.22;2188315;81;29379;-68
2021/05/16 05:07:33;;;;;;;1.90;1.80;;;;;;;20.65;65.73;99083.25;2188294;81;31008;-67
2021/05/16 05:10:35;;;;;;;2.55;1.98;;;;;;;20.96;64.47;99079.83;2166886;81;32989;-66
2021/05/16 05:13:37;;;;;;;4.53;1.98;;;;;;;21.08;63.45;99077.06;2188255;81;29046;-68
2021/05/16 05:16:39;;;;;;;2.15;1.52;;;;;;;21.05;62.78;99084.21;2185180;81;27638;-66
2021/05/16 05:19:41;;;;;;;5.30;1.40;;;;;;;21.03;62.32;99091.70;2184166;81;29039;-68
2021/05/16 05:22:42;;;;;;;3.22;1.65;;;;;;;20.97;61.20;99097.00;2184428;81;32108;-67
2021/05/16 05:25:44;;;;;;;2.40;1.90;;;;;;;20.97;60.83;99096.50;2186031;81;33690;-67
2021/05/16 05:28:46;;;;;;;3.80;1.90;;;;;;;21.02;60.23;99108.23;2188422;81;30244;-67
2021/05/16 05:31:48;;;;;;;2.75;1.47;;;;;;;21.11;60.24;99105.81;2188624;81;27618;-65
2021/05/16 05:34:50;;;;;;;1.70;1.50;;;;;;;21.24;59.60;99113.44;2188027;81;28994;-69
2021/05/16 05:37:52;;;;;;;1.95;1.50;;;;;;;21.39;58.93;99114.41;2184585;81;31518;-67
2021/05/16 05:40:53;;;;;;;1.50;1.40;;;;;;;21.54;58.52;99117.27;2184466;81;32266;-67
2021/05/16 05:43:55;;;;;;;2.80;1.72;;;;;;;21.85;58.55;99112.87;2184515;81;29807;-68
2021/05/16 05:46:58;;;;;;;2.00;1.70;;;;;;;22.24;57.57;99120.66;2187703;81;27597;-67
2021/05/16 05:49:59;;;;;;;2.37;1.62;;;;;;;22.54;56.76;99116.71;2188503;81;29395;-69
2021/05/16 05:53:04;;;;;;;2.00;1.50;;;;;;;22.88;56.05;99118.12;2188399;81;31384;-70
2021/05/16 05:56:07;;;;;;;3.98;2.02;;;;;;;23.09;54.76;99121.48;2187328;81;33199;-69
2021/05/16 05:59:09;;;;;;;1.60;1.30;;;;;;;23.39;54.46;99113.85;2186435;81;29206;-69
2021/05/16 06:02:11;;;;;;;3.47;1.30;;;;;;;23.76;54.58;99116.09;2186515;81;27682;-68
2021/05/16 06:05:13;;;;;;;2.00;1.32;;;;;;;24.24;53.76;99115.09;2185929;81;29036;-69
2021/05/16 06:08:16;;;;;;;3.42;1.60;;;;;;;24.71;52.59;99122.42;2184450;81;30740;-70
2021/05/16 06:11:17;;;;;;;2.12;1.35;;;;;;;25.04;50.71;99129.22;2184411;81;32928;-69
2021/05/16 06:14:19;;;;;;;1.95;1.62;;;;;;;25.19;50.55;99127.72;2184270;81;29740;-69
2021/05/16 06:17:21;;;;;;;2.77;1.20;;;;;;;25.40;49.79;99129.53;2197687;79;27665;-68
2021/05/16 06:20:22;;;;;;;1.35;1.17;;;;;;;25.62;49.15;99133.59;2188108;79;28583;-70
2021/05/16 06:23:33;;;;;;;1.22;0.90;;;;;;;25.85;46.75;99137.39;2188134;79;30956;-65
2021/05/16 06:26:29;;;;;;;2.93;1.30;;;;;;;25.59;46.56;99144.45;2155767;82;32940;-70
2021/05/16 06:29:31;;;;;;;2.03;1.30;;;;;;;25.16;46.55;99142.69;2160798;82;29037;-70
2021/05/16 06:32:33;;;;;;;1.15;1.05;;;;;;;24.67;46.27;99147.63;2160550;82;27621;-66
2021/05/16 06:35:35;;;;;;;1.37;1.00;;;;;;;24.23;45.65;99150.38;2187723;79;28584;-69
2021/05/16 06:38:36;;;;;;;1.35;1.20;;;;;;;23.75;46.43;99155.42;2198355;80;31899;-70
2021/05/16 06:41:38;;;;;;;1.62;1.17;;;;;;;23.49;46.47;99159.00;2198320;80;33866;-69
2021/05/16 06:44:40;;;;;;;1.25;0.90;;;;;;;23.14;46.50;99155.06;2199035;79;29000;-67
2021/05/16 06:47:41;;;;;;;2.55;1.20;;;;;;;22.92;47.36;99154.92;2198635;80;27655;-70
2021/05/16 06:50:43;;;;;;;2.25;1.37;;;;;;;22.69;46.87;99153.59;2198635;80;28588;-69
2021/05/16 06:53:45;;;;;;;1.52;1.22;;;;;;;22.46;47.30;99154.47;2196458;80;30960;-69
2021/05/16 06:56:46;;;;;;;1.00;0.90;;;;;;;22.31;47.52;99149.77;2158367;82;33692;-65
2021/05/16 06:59:48;;;;;;;1.32;1.05;;;;;;;22.06;46.93;99157.76;2158380;82;29898;-69
2021/05/16 07:02:50;;;;;;;4.87;1.20;;;;;;;21.67;47.02;99163.08;2158389;82;27628;-68
2021/05/16 07:05:52;;;;;;;1.30;0.93;;;;;;;21.34;47.25;99167.23;2187887;80;28561;-68
2021/05/16 07:08:54;;;;;;;1.50;1.15;;;;;;;21.01;47.82;99165.94;2198793;80;31231;-68
2021/05/16 07:11:56;;;;;;;3.87;1.10;;;;;;;20.77;48.29;99166.77;2198527;80;33682;-68
2021/05/16 07:14:58;;;;;;;2.22;1.10;;;;;;;20.48;48.58;99169.46;2181546;80;29039;-68
2021/05/16 07:17:59;;;;;;;1.60;1.02;;;;;;;20.22;48.57;99168.23;2158761;82;27607;-69
2021/05/16 07:21:01;;;;;;;1.77;1.12;;;;;;;19.88;48.49;99172.21;2120121;83;28619;-70
2021/05/16 07:24:03;;;;;;;2.02;1.10;;;;;;;19.67;49.36;99169.89;2128157;81;30950;-69
2021/05/16 07:27:05;;;;;;;1.15;1.00;;;;;;;19.51;49.73;99176.13;2194068;81;33705;-68
2021/05/16 07:30:09;;;;;;;1.95;0.93;;;;;;;19.35;49.63;99180.11;2194163;81;29015;-69
2021/05/16 07:33:11;;;;;;;1.90;1.10;;;;;;;19.19;49.84;99180.84;2194260;81;27579;-69
2021/05/16 07:36:13;;;;;;;2.00;1.05;;;;;;;19.04;50.26;99173.28;2162412;81;28574;-68
2021/05/16 07:39:15;;;;;;;1.50;1.07;;;;;;;18.91;50.72;99180.44;2154745;82;31805;-68
2021/05/16 07:42:17;;;;;;;3.80;1.45;;;;;;;18.71;50.27;99175.72;2157884;81;32951;-65
2021/05/16 07:45:21;;;;;;;1.45;0.90;;;;;;;18.57;50.66;99182.53;2198435;80;29747;-67
2021/05/16 07:48:28;;;;;;;1.42;1.00;;;;;;;18.53;51.31;99176.58;2198720;80;27581;-68
2021/05/16 07:51:26;;;;;;;1.92;1.00;;;;;;;18.49;51.38;99179.25;2205725;79;28575;-69
2021/05/16 07:54:28;;;;;;;1.65;0.85;;;;;;;18.38;51.16;99185.75;2235416;79;31609;-69
2021/05/16 07:57:29;;;;;;;1.27;0.90;;;;;;;18.30;51.39;99185.68;2235442;79;33672;-69
2021/05/16 08:00:31;;;;;;;3.10;0.85;;;;;;;18.25;51.25;99193.41;2235711;79;28989;-65
2021/05/16 08:03:33;;;;;;;0.93;0.72;;;;;;;18.22;51.58;99197.30;2210410;79;27587;-69
2021/05/16 08:06:34;;;;;;;1.57;0.93;;;;;;;18.18;51.53;99193.69;2238042;79;28129;-76
2021/05/16 08:09:36;;;;;;;4.45;1.10;;;;;;;18.10;51.64;99193.59;2238082;79;30806;-74
2021/05/16 08:12:38;;;;;;;1.17;1.00;;;;;;;17.87;51.47;99162.83;2194269;79;33839;-72
2021/05/16 08:15:40;;;;;;;1.00;0.93;;;;;;;18.02;52.05;99199.28;2158483;82;28992;-73
2021/05/16 08:18:42;;;;;;;1.40;1.27;;;;;;;17.98;52.05;99201.06;2158853;81;27518;-72
2021/05/16 08:21:45;;;;;;;5.03;1.82;;;;;;;17.89;51.90;99203.66;2159606;79;29287;-72
2021/05/16 08:24:47;;;;;;;1.87;0.95;;;;;;;17.86;52.34;99207.19;2161480;79;31705;-70
2021/05/16 08:27:51;;;;;;;2.47;1.30;;;;;;;17.89;52.58;99209.56;2198906;80;32949;-72
2021/05/16 08:30:53;;;;;;;1.40;1.30;;;;;;;17.90;52.51;99214.85;2198574;80;29010;-68
2021/05/16 08:33:54;;;;;;;1.45;0.62;;;;;;;17.87;52.29;99220.56;2229505;79;27580;-71
2021/05/16 08:36:56;;;;;;;1.90;0.70;;;;;;;17.82;51.71;99221.51;2200762;79;28719;-70
2021/05/16 08:39:58;;;;;;;1.47;0.90;;;;;;;17.86;52.24;99228.86;2159139;81;31024;-68
2021/05/16 08:43:04;;;;;;;1.62;1.00;;;;;;;17.95;52.13;99228.45;2177073;79;32928;-69
2021/05/16 08:46:09;;;;;;;1.05;0.95;;;;;;;18.00;52.02;99225.67;2171308;80;28956;-71
2021/05/16 08:49:11;;;;;;;1.37;1.00;;;;;;;18.11;52.07;99225.98;2197268;79;27605;-62
2021/05/16 08:52:14;;;;;;;0.85;0.85;;;;;;;18.30;52.24;99225.00;2208434;79;28599;-62
2021/05/16 08:55:17;;;;;;;3.75;1.00;;;;;;;18.41;51.20;99224.41;2224323;79;31047;-63
2021/05/16 08:58:19;;;;;;;1.52;1.05;;;;;;;18.43;51.31;99225.12;2205985;79;34310;-61
2021/05/16 09:01:24;;;;;;;1.65;1.25;;;;;;;18.41;51.14;99231.19;2200828;79;30148;-62
2021/05/16 09:04:37;;;;;;;1.55;1.02;;;;;;;18.37;51.08;99233.36;2235937;79;27645;-63
2021/05/16 09:07:39;;;;;;;1.50;0.95;;;;;;;18.29;51.10;99228.70;2235036;79;29510;-62
2021/05/16 09:10:50;;;;;;;3.80;1.30;;;;;;;18.19;51.35;99231.48;2201805;79;31621;-61
2021/05/16 09:13:54;;;;;;;2.12;1.45;;;;;;;18.15;51.35;99238.20;2231036;79;32984;-62
2021/05/16 09:16:56;;;;;;;1.52;1.12;;;;;;;18.08;51.44;99241.19;2235951;79;29041;-62
2021/05/16 09:20:08;;;;;;;2.08;1.60;;;;;;;17.98;51.47;99243.07;2236063;79;27577;-63
2021/05/16 09:23:11;;;;;;;1.52;1.00;;;;;;;17.89;51.52;99253.79;2235555;79;29218;-63
2021/05/16 09:26:14;;;;;;;2.22;1.00;;;;;;;17.79;51.70;99254.31;2232958;79;31480;-62
2021/05/16 09:29:33;;;;;;;2.67;0.95;;;;;;;17.71;51.48;99252.86;2218356;80;33754;-63
2021/05/16 09:32:51;;;;;;;1.27;1.17;;;;;;;17.67;51.97;99247.37;2218398;80;29008;-63
2021/05/16 09:35:55;;;;;;;1.92;1.12;;;;;;;17.66;51.87;99258.73;2217794;79;28232;-63
2021/05/16 09:39:19;;;;;;;2.22;1.42;;;;;;;17.54;52.02;99232.84;2218554;79;29001;-63
2021/05/16 09:42:23;;;;;;;1.98;1.10;;;;;;;17.74;52.10;99260.19;2208127;80;32340;-61
2021/05/16 09:45:29;;;;;;;1.32;0.95;;;;;;;17.79;52.47;99259.73;2188320;81;32917;-63
2021/05/16 09:48:47;;;;;;;1.67;1.30;;;;;;;17.71;52.42;99232.03;2138404;81;29596;-63
2021/05/16 09:51:48;;;;;;;3.70;1.10;;;;;;;17.81;52.07;99256.89;2198270;80;27555;-62
2021/05/16 09:55:01;;;;;;;3.42;1.40;;;;;;;17.76;51.95;99254.13;2212914;80;29069;-62
2021/05/16 09:58:04;;;;;;;3.27;2.30;;;;;;;17.79;52.66;99241.28;2188859;81;32169;-62
2021/05/16 10:01:07;;;;;;;2.75;1.50;;;;;;;18.02;52.45;99252.61;2189766;80;33901;-63
2021/05/16 10:04:09;;;;;;;5.45;3.47;;;;;;;18.17;52.22;99265.17;2188783;81;28998;-63
2021/05/16 10:07:12;;;;;;;4.33;3.10;;;;;;;18.34;52.24;99256.71;2188739;81;27615;-63
2021/05/16 10:10:15;;;;;;;2.30;1.90;;;;;;;18.61;52.24;99259.89;2188808;81;28616;-63
2021/05/16 10:13:18;;;;;;;3.20;1.82;;;;;;;18.95;52.33;99256.52;2212710;80;31690;-63
2021/05/16 10:16:21;;;;;;;1.60;1.50;;;;;;;19.25;51.89;99261.67;2218189;80;33999;-62
2021/05/16 10:19:36;;;;;;;1.85;1.45;;;;;;;19.34;51.00;99263.42;2218069;80;29010;-63
2021/05/16 10:22:41;;;;;;;1.52;1.20;;;;;;;19.25;51.15;99261.67;2217699;80;27625;-62
2021/05/16 10:25:48;;;;;;;1.82;1.32;;;;;;;19.10;50.88;99260.89;2189067;79;30379;-63
2021/05/16 10:29:11;;;;;;;2.02;1.10;;;;;;;19.12;51.37;99261.55;2191839;81;30997;-61
2021/05/16 10:32:33;;;;;;;1.92;1.27;;;;;;;19.12;51.37;99258.00;2178538;81;33004;-63
2021/05/16 10:35:50;;;;;;;2.67;1.10;;;;;;;19.19;51.50;99254.15;2192186;81;29804;-62
2021/05/16 10:38:53;;;;;;;2.42;1.30;;;;;;;19.16;51.10;99265.32;2189625;81;27614;-61
2021/05/16 10:42:36;;;;;;;3.75;1.90;;;;;;;19.12;51.03;99265.62;2220850;80;29384;-61
2021/05/16 10:45:39;;;;;;;1.60;1.12;;;;;;;19.15;51.84;99261.77;2186568;81;30664;-62
2021/05/16 10:48:41;;;;;;;2.45;1.25;;;;;;;19.26;50.75;99257.95;2184624;81;33060;-63
2021/05/16 10:51:45;;;;;;;2.92;1.67;;;;;;;19.35;50.90;99252.91;2159368;81;43666;-63
2021/05/16 10:54:53;;;;;;;1.30;1.20;;;;;;;19.71;50.83;99243.29;2192545;81;27489;-64
2021/05/16 10:57:55;;;;;;;2.45;1.30;;;;;;;20.12;50.94;99244.50;2192371;81;28733;-63
2021/05/16 11:01:03;;;;;;;1.67;1.30;;;;;;;20.45;50.02;99237.31;2173638;81;32216;-62
2021/05/16 11:04:06;;;;;;;1.10;1.00;;;;;;;20.76;49.64;99238.06;2151929;82;33370;-62
2021/05/16 11:07:10;;;;;;;2.02;1.02;;;;;;;21.06;48.85;99227.52;2153018;82;29025;-63
2021/05/16 11:10:29;;;;;;;4.65;0.72;;;;;;;21.30;48.59;99226.30;2155664;79;27671;-61
2021/05/16 11:13:35;;;;;;;1.32;0.80;;;;;;;21.38;47.02;99215.41;2151108;82;28613;-62
2021/05/16 11:16:38;;;;;;;1.15;0.90;;;;;;;21.25;47.38;99203.67;2152866;82;31612;-62
2021/05/16 11:19:46;;;;;;;2.00;0.90;;;;;;;20.98;46.26;99194.00;2153020;81;33718;-62
2021/05/16 11:22:49;;;;;;;1.87;1.50;;;;;;;20.69;46.34;99196.70;2172852;81;29458;-62
2021/05/16 11:25:57;;;;;;;0.70;0.70;;;;;;;20.42;45.72;99190.55;2190305;81;27622;-63
2021/05/16 11:29:13;;;;;;;1.80;0.50;;;;;;;20.19;45.86;99193.89;2187046;80;28602;-62
2021/05/16 11:32:30;;;;;;;0.88;0.50;;;;;;;20.04;46.31;99198.62;2152034;81;27650;-62
2021/05/16 11:35:32;;;;;;;1.10;0.75;;;;;;;19.93;46.04;99190.77;2145759;82;32960;-62
2021/05/16 11:38:42;;;;;;;0.50;0.50;;;;;;;19.79;46.13;99185.90;2101145;83;31150;-63
2021/05/16 11:41:45;;;;;;;0.53;0.53;;;;;;;19.74;45.90;99180.96;2164844;81;27551;-62
2021/05/16 11:44:57;;;;;;;4.40;0.60;;;;;;;19.75;46.13;99173.16;2178238;81;29587;-62
2021/05/16 11:48:01;;;;;;;0.88;0.78;;;;;;;19.85;47.04;99177.97;2177907;81;32064;-62
2021/05/16 11:51:14;;;;;;;0.42;0.40;;;;;;;19.99;46.34;99176.50;2168099;81;33161;-63
2021/05/16 11:54:17;;;;;;;2.37;0.85;;;;;;;20.06;46.39;99172.61;2205060;80;29105;-62
2021/05/16 11:57:21;;;;;;;1.00;0.90;;;;;;;20.11;46.09;99165.31;2185614;81;27641;-62
2021/05/16 12:00:27;;;;;;;2.25;0.80;;;;;;;20.12;46.38;99169.23;2184261;81;29553;-62
2021/05/16 12:03:30;;;;;;;1.52;0.90;;;;;;;20.24;46.14;99165.70;2205288;80;31201;-62
2021/05/16 12:06:50;;;;;;;2.22;0.60;;;;;;;20.39;46.02;99171.84;2178161;81;35122;-62
2021/05/16 12:09:54;;;;;;;1.50;1.00;;;;;;;20.44;45.69;99171.67;2161429;81;29055;-62
2021/05/16 12:12:57;;;;;;;2.57;0.97;;;;;;;20.45;45.95;99167.94;2145531;82;27649;-61
2021/05/16 12:16:24;;;;;;;2.90;0.80;;;;;;;20.48;45.97;99170.82;2144954;82;28654;-62
2021/05/16 12:19:37;;;;;;;2.22;0.60;;;;;;;20.57;46.11;99166.23;2176594;81;30709;-62
2021/05/16 12:22:44;;;;;;;0.95;0.80;;;;;;;20.51;45.30;99160.97;2177516;81;32952;-62
2021/05/16 12:25:48;;;;;;;2.27;0.75;;;;;;;20.46;45.06;99158.76;2177490;81;29100;-62
2021/05/16 12:28:55;;;;;;;0.85;0.80;;;;;;;20.44;45.16;99151.27;2164144;81;28216;-62
2021/05/16 12:31:58;;;;;;;0.70;0.70;;;;;;;20.44;44.75;99149.05;2192218;81;29569;-62
2021/05/16 12:35:02;;;;;;;2.23;2.03;;;;;;;20.33;45.38;99150.25;2220435;79;31658;-62
2021/05/16 12:38:15;;;;;;;1.27;0.82;;;;;;;20.30;45.35;99150.58;2179043;79;33612;-61
2021/05/16 12:41:25;;;;;;;1.12;0.80;;;;;;;20.24;45.12;99149.88;2232243;79;29247;-63
2021/05/16 12:44:30;;;;;;;2.37;0.70;;;;;;;20.17;44.98;99146.98;2231336;79;27597;-62
2021/05/16 12:47:33;;;;;;;;;;;;;;;20.12;44.85;99147.98;2230196;79;28688;-62
2021/05/16 12:50:49;;;;;;;2.80;1.00;;;;;;;20.16;45.83;99156.16;2192241;81;31009;-62
2021/05/16 12:53:53;;;;;;;0.95;0.80;;;;;;;20.19;45.61;99158.55;2191461;81;33025;-62
2021/05/16 12:57:02;;;;;;;;;;;;;;;20.22;45.78;99154.14;2222532;79;29024;-62
2021/05/16 13:00:07;;;;;;;4.58;0.78;;;;;;;20.27;45.66;99157.19;2192622;79;27616;-62
2021/05/16 13:03:11;;;;;;;2.33;0.88;;;;;;;20.26;45.28;99151.43;2192214;81;28655;-63
2021/05/16 13:06:16;;;;;;;1.52;0.90;;;;;;;20.41;45.48;99155.68;2192230;81;31013;-61
2021/05/16 13:09:29;;;;;;;2.60;1.10;;;;;;;20.62;45.49;99156.54;2213989;79;33644;-61
2021/05/16 13:12:32;;;;;;;0.50;0.50;;;;;;;20.84;45.56;99149.27;2231389;79;29598;-62
2021/05/16 13:15:37;;;;;;;5.15;1.10;;;;;;;21.02;44.58;99151.27;2231351;79;27547;-61
2021/05/16 13:18:53;;;;;;;1.98;1.10;;;;;;;21.02;44.65;99151.80;2201804;80;28614;-61
2021/05/16 13:22:01;;;;;;;1.57;1.15;;;;;;;20.91;45.45;99151.14;2186291;80;31807;-60
2021/05/16 13:25:07;;;;;;;1.82;0.80;;;;;;;20.90;45.45;99145.84;2184441;81;33463;-62
2021/05/16 13:28:15;;;;;;;0.85;0.70;;;;;;;20.82;44.89;99143.15;2177721;81;29072;-62
2021/05/16 13:31:14;;;;;;;;;;;;;;;20.78;44.59;99137.17;2147222;82;27621;-61
2021/05/16 13:34:21;;;;;;;0.65;0.47;;;;;;;20.66;44.55;99135.30;2184520;81;29271;-62
2021/05/16 13:37:30;;;;;;;0.50;0.50;;;;;;;20.55;44.54;99135.13;2184270;81;33055;-62
2021/05/16 13:40:29;;;;;;;1.87;0.68;;;;;;;20.43;44.60;99123.72;2184160;80;34595;-61
2021/05/16 13:43:33;;;;;;;1.10;0.70;;;;;;;20.23;43.75;99127.28;2187775;81;29042;-61
2021/05/16 13:46:37;;;;;;;1.73;0.90;;;;;;;20.08;43.99;99128.44;2188714;81;28205;-61
2021/05/16 13:49:40;;;;;;;1.12;0.88;;;;;;;19.91;44.37;99118.05;2187252;80;28638;-61
2021/05/16 13:52:50;;;;;;;0.62;0.60;;;;;;;19.78;44.29;99114.41;2185443;81;31032;-61
2021/05/16 13:55:47;;;;;;;1.07;0.50;;;;;;;19.59;44.22;99111.47;2185581;81;32972;-62
2021/05/16 13:58:50;;;;;;;1.07;0.88;;;;;;;19.39;44.04;99110.84;2194801;80;31096;-61
2021/05/16 14:01:53;;;;;;;1.05;0.70;;;;;;;19.21;44.47;99109.06;2218284;80;27551;-61
2021/05/16 14:04:56;;;;;;;1.25;0.78;;;;;;;19.11;44.46;99098.84;2245087;78;28790;-61
2021/05/16 14:08:04;;;;;;;2.52;0.88;;;;;;;18.97;44.83;99101.63;2218124;80;30992;-61
2021/05/16 14:11:09;;;;;;;3.02;0.90;;;;;;;18.81;44.62;99109.98;2217322;80;32930;-61
2021/05/16 14:14:13;;;;;;;1.17;0.95;;;;;;;18.67;44.96;99108.72;2218279;79;29667;-61
2021/05/16 14:17:17;;;;;;;3.83;1.22;;;;;;;18.59;45.36;99099.14;2218195;80;27712;-61
2021/05/16 14:20:23;;;;;;;2.75;1.05;;;;;;;18.60;45.44;99095.95;2193028;79;28645;-61
2021/05/16 14:23:25;;;;;;;1.05;0.80;;;;;;;18.59;45.20;99099.14;2184382;81;31138;-61